Time;durP1;ratioP1;P1;durP2;ratioP2;P2;SDS_P1;SDS_P2;PMS_P1;PMS_P2;Temp;Humidity;BMP_temperature;BMP_pressure;BME280_temperature;BME280_humidity;BME280_pressure;Samples;Min_cycle;Max_cycle;Signal;HPM_P1;HPM_P2
2021/11/10 00:01:54;;;;;;;14.75;5.30;;;;;;;;;;5078765;28;20066;-79
2021/11/10 00:04:20;;;;;;;13.07;5.57;;;;;;;;;;5079126;28;20477;-79
2021/11/10 00:06:46;;;;;;;11.88;5.50;;;;;;;;;;5078835;28;20041;-79
2021/11/10 00:09:11;;;;;;;47.40;8.32;;;;;;;;;;5074175;28;20050;-79
2021/11/10 00:11:37;;;;;;;17.67;5.70;;;;;;;;;;5058403;28;20056;-79
2021/11/10 00:14:03;;;;;;;16.08;6.50;;;;;;;;;;5057676;28;20056;-79
2021/11/10 00:16:30;;;;;;;20.48;7.38;;;;;;;;;;5057999;28;20045;-79
2021/11/10 00:18:56;;;;;;;16.77;7.18;;;;;;;;;;5058222;28;20124;-79
2021/11/10 00:21:23;;;;;;;17.45;7.32;;;;;;;;;;5057809;28;20041;-79
2021/11/10 00:23:48;;;;;;;18.58;7.22;;;;;;;;;;5045938;28;20039;-79
2021/11/10 00:26:15;;;;;;;18.63;7.60;;;;;;;;;;5037987;28;20072;-79
2021/11/10 00:28:40;;;;;;;33.67;7.88;;;;;;;;;;5038043;28;20406;-79
2021/11/10 00:31:06;;;;;;;18.35;6.95;;;;;;;;;;5037671;28;20475;-79
2021/11/10 00:33:32;;;;;;;90.45;8.15;;;;;;;;;;5038132;28;20427;-79
2021/11/10 00:35:57;;;;;;;218.38;10.82;;;;;;;;;;5037717;28;20042;-79
2021/11/10 00:38:23;;;;;;;22.42;7.82;;;;;;;;;;5036948;28;20502;-79
2021/11/10 00:40:48;;;;;;;24.98;7.25;;;;;;;;;;5037136;28;20033;-79
2021/11/10 00:43:14;;;;;;;55.50;9.63;;;;;;;;;;5035646;28;20059;-79
2021/11/10 00:45:40;;;;;;;17.67;7.10;;;;;;;;;;5036219;28;20037;-79
2021/11/10 00:48:05;;;;;;;14.52;7.13;;;;;;;;;;5068215;28;20497;-79
2021/11/10 00:50:32;;;;;;;18.00;7.82;;;;;;;;;;5076143;28;20033;-79
2021/11/10 00:52:57;;;;;;;21.15;7.00;;;;;;;;;;5076629;28;20036;-79
2021/11/10 00:55:24;;;;;;;16.52;6.57;;;;;;;;;;5076545;28;20098;-79
2021/11/10 00:57:51;;;;;;;9.88;6.32;;;;;;;;;;5058975;28;20489;-79
2021/11/10 01:00:17;;;;;;;27.30;6.47;;;;;;;;;;5076887;28;20468;-79
2021/11/10 01:02:43;;;;;;;14.55;5.28;;;;;;;;;;5076414;28;20034;-79
2021/11/10 01:05:09;;;;;;;14.07;4.90;;;;;;;;;;5075372;28;20040;-80
2021/11/10 01:07:34;;;;;;;17.30;4.65;;;;;;;;;;5079043;28;20037;-80
2021/11/10 01:10:02;;;;;;;11.40;4.82;;;;;;;;;;5077440;28;20379;-80
2021/11/10 01:12:28;;;;;;;11.30;5.10;;;;;;;;;;5061022;28;20024;-80
2021/11/10 01:14:55;;;;;;;12.30;4.60;;;;;;;;;;5078171;28;20516;-80
2021/11/10 01:17:21;;;;;;;20.85;4.95;;;;;;;;;;5052386;28;20048;-81
2021/11/10 01:19:47;;;;;;;13.85;5.78;;;;;;;;;;5057906;28;20029;-81
2021/11/10 01:22:13;;;;;;;13.30;5.20;;;;;;;;;;5057660;28;20036;-80
2021/11/10 01:24:39;;;;;;;18.83;5.82;;;;;;;;;;5039032;28;20082;-80
2021/11/10 01:27:05;;;;;;;89.63;6.32;;;;;;;;;;5037416;28;20030;-80
2021/11/10 01:29:31;;;;;;;32.28;4.97;;;;;;;;;;5038820;28;20032;-80
2021/11/10 01:31:59;;;;;;;8.15;4.88;;;;;;;;;;5037274;28;20116;-80
2021/11/10 01:34:26;;;;;;;12.50;5.20;;;;;;;;;;5036910;28;20522;-80
2021/11/10 01:36:52;;;;;;;38.75;6.00;;;;;;;;;;5036675;28;20033;-80
2021/11/10 01:39:18;;;;;;;10.02;5.35;;;;;;;;;;5036167;28;20032;-80
2021/11/10 01:41:51;;;;;;;11.80;5.18;;;;;;;;;;5036373;28;20053;-80
2021/11/10 01:44:26;;;;;;;11.27;5.30;;;;;;;;;;5036658;28;20121;-80
2021/11/10 01:46:55;;;;;;;27.88;5.30;;;;;;;;;;5038120;28;20079;-79
2021/11/10 01:49:24;;;;;;;7.60;5.13;;;;;;;;;;5035781;28;20040;-80
2021/11/10 01:51:53;;;;;;;14.65;5.45;;;;;;;;;;5036409;28;20026;-80
2021/11/10 01:54:24;;;;;;;13.98;5.38;;;;;;;;;;5035725;28;20076;-80
2021/11/10 01:56:50;;;;;;;29.30;5.85;;;;;;;;;;5035632;28;20041;-80
2021/11/10 01:59:38;;;;;;;8.65;4.90;;;;;;;;;;5035858;28;20032;-80
2021/11/10 02:02:27;;;;;;;15.27;6.30;;;;;;;;;;5019731;28;20486;-80
2021/11/10 02:04:59;;;;;;;9.85;5.32;;;;;;;;;;5035377;28;20045;-80
2021/11/10 02:07:26;;;;;;;12.20;5.22;;;;;;;;;;5055295;28;20045;-80
2021/11/10 02:09:52;;;;;;;14.63;5.05;;;;;;;;;;5054736;28;20434;-79
2021/11/10 02:12:19;;;;;;;26.95;5.70;;;;;;;;;;5056464;28;20025;-80
2021/11/10 02:14:48;;;;;;;10.40;5.68;;;;;;;;;;5055077;28;20025;-80
2021/11/10 02:17:19;;;;;;;33.30;6.50;;;;;;;;;;5055979;28;20041;-80
2021/11/10 02:19:47;;;;;;;64.38;8.63;;;;;;;;;;5056325;28;20025;-79
2021/11/10 02:22:20;;;;;;;58.65;7.75;;;;;;;;;;5040294;28;20036;-80
2021/11/10 02:24:47;;;;;;;196.75;10.52;;;;;;;;;;5067871;28;20044;-80
2021/11/10 02:27:22;;;;;;;32.38;9.07;;;;;;;;;;5076077;28;20468;-79
2021/11/10 02:29:50;;;;;;;277.40;11.65;;;;;;;;;;5075282;28;20090;-80
2021/11/10 02:32:17;;;;;;;75.72;9.15;;;;;;;;;;5075676;28;20042;-79
2021/11/10 02:34:45;;;;;;;106.53;8.95;;;;;;;;;;5058582;28;20032;-80
2021/11/10 02:37:13;;;;;;;318.30;10.77;;;;;;;;;;5075767;28;20040;-80
2021/11/10 02:39:38;;;;;;;45.15;8.10;;;;;;;;;;5053488;28;20104;-80
2021/11/10 02:42:05;;;;;;;49.80;7.70;;;;;;;;;;5037250;28;20057;-80
2021/11/10 02:44:30;;;;;;;21.55;7.03;;;;;;;;;;5037259;28;20079;-80
2021/11/10 02:46:56;;;;;;;19.42;7.20;;;;;;;;;;5036550;28;20033;-80
2021/11/10 02:49:22;;;;;;;23.98;7.53;;;;;;;;;;5036175;28;20036;-80
2021/11/10 02:52:10;;;;;;;29.92;8.35;;;;;;;;;;5036735;28;20058;-80
2021/11/10 02:54:40;;;;;;;39.95;7.40;;;;;;;;;;5034742;28;20041;-79
2021/11/10 02:57:08;;;;;;;32.75;6.97;;;;;;;;;;5036517;28;20037;-79
2021/11/10 02:59:34;;;;;;;15.38;6.68;;;;;;;;;;5036296;28;20041;-79
2021/11/10 03:02:01;;;;;;;17.95;7.25;;;;;;;;;;5035647;28;20044;-79
2021/11/10 03:04:30;;;;;;;17.52;6.57;;;;;;;;;;5034924;28;20037;-79
2021/11/10 03:06:57;;;;;;;35.10;8.05;;;;;;;;;;5034502;28;20029;-79
2021/11/10 03:09:26;;;;;;;23.50;6.68;;;;;;;;;;5051989;28;20024;-79
2021/11/10 03:11:59;;;;;;;27.50;7.43;;;;;;;;;;5074448;28;20029;-79
2021/11/10 03:14:29;;;;;;;21.40;7.05;;;;;;;;;;5074592;28;20104;-79
2021/11/10 03:16:57;;;;;;;24.42;6.50;;;;;;;;;;5072690;28;20036;-78
2021/11/10 03:19:25;;;;;;;17.65;6.68;;;;;;;;;;5055995;28;20028;-77
2021/11/10 03:21:50;;;;;;;32.75;6.82;;;;;;;;;;5071567;28;20415;-77
2021/11/10 03:24:17;;;;;;;11.95;6.25;;;;;;;;;;5056060;28;20078;-77
2021/11/10 03:26:45;;;;;;;18.50;7.40;;;;;;;;;;5051351;28;20032;-78
2021/11/10 03:29:11;;;;;;;16.73;6.85;;;;;;;;;;5051724;28;20029;-78
2021/11/10 03:31:39;;;;;;;12.40;7.00;;;;;;;;;;5052808;28;20032;-77
2021/11/10 03:34:06;;;;;;;17.73;7.97;;;;;;;;;;5055497;28;20056;-77
2021/11/10 03:36:33;;;;;;;31.17;6.70;;;;;;;;;;5055804;28;20044;-77
2021/11/10 03:38:59;;;;;;;32.55;7.25;;;;;;;;;;5054412;28;20036;-77
2021/11/10 03:41:25;;;;;;;17.80;6.53;;;;;;;;;;5055728;28;20032;-77
2021/11/10 03:43:51;;;;;;;27.48;6.45;;;;;;;;;;5055213;28;20060;-77
2021/11/10 03:46:23;;;;;;;52.00;6.68;;;;;;;;;;5055443;28;20048;-77
2021/11/10 03:48:50;;;;;;;15.18;6.03;;;;;;;;;;5055568;28;20033;-77
2021/11/10 03:51:17;;;;;;;39.33;6.22;;;;;;;;;;5055743;28;20486;-77
2021/11/10 03:53:44;;;;;;;9.98;6.20;;;;;;;;;;5057910;28;20355;-77
2021/11/10 03:56:10;;;;;;;49.00;7.18;;;;;;;;;;5058034;28;20040;-78
2021/11/10 03:58:36;;;;;;;13.02;6.53;;;;;;;;;;5062747;28;20040;-78
2021/11/10 04:01:04;;;;;;;14.93;6.50;;;;;;;;;;5062169;28;20398;-77
2021/11/10 04:03:32;;;;;;;15.40;6.30;;;;;;;;;;5055264;28;20055;-77
2021/11/10 04:05:59;;;;;;;19.42;7.10;;;;;;;;;;5055472;28;20041;-77
2021/11/10 04:08:26;;;;;;;10.93;6.40;;;;;;;;;;5054458;28;20479;-77
2021/11/10 04:10:52;;;;;;;10.23;6.05;;;;;;;;;;5054983;28;20803;-77
2021/11/10 04:13:18;;;;;;;46.45;7.43;;;;;;;;;;5055378;28;20125;-77
2021/11/10 04:15:47;;;;;;;17.17;7.07;;;;;;;;;;5055086;28;20429;-77
2021/11/10 04:18:13;;;;;;;12.05;6.82;;;;;;;;;;5038475;28;20074;-77
2021/11/10 04:20:39;;;;;;;15.10;6.45;;;;;;;;;;5038405;28;20079;-77
2021/11/10 04:23:06;;;;;;;38.63;6.55;;;;;;;;;;5055064;28;20036;-77
2021/11/10 04:25:32;;;;;;;16.65;6.10;;;;;;;;;;5054621;28;20032;-77
2021/11/10 04:27:57;;;;;;;57.17;6.18;;;;;;;;;;5056209;28;20530;-77
2021/11/10 04:30:27;;;;;;;22.20;6.75;;;;;;;;;;5054993;28;20395;-76
2021/11/10 04:32:53;;;;;;;118.05;7.28;;;;;;;;;;5054893;28;20033;-76
2021/11/10 04:35:20;;;;;;;36.88;7.32;;;;;;;;;;5055082;28;20060;-77
2021/11/10 04:37:48;;;;;;;123.95;8.43;;;;;;;;;;5038428;28;20493;-77
2021/11/10 04:40:14;;;;;;;9.50;6.35;;;;;;;;;;5054247;28;20033;-77
2021/11/10 04:42:41;;;;;;;19.55;7.70;;;;;;;;;;5054281;28;20045;-77
2021/11/10 04:45:11;;;;;;;46.30;6.93;;;;;;;;;;5053364;28;20067;-77
2021/11/10 04:47:38;;;;;;;32.90;7.70;;;;;;;;;;5054577;28;20033;-77
2021/11/10 04:50:06;;;;;;;205.93;8.90;;;;;;;;;;5055799;28;20033;-76
2021/11/10 04:52:35;;;;;;;77.80;7.45;;;;;;;;;;5054709;28;20039;-77
2021/11/10 04:55:00;;;;;;;164.32;8.52;;;;;;;;;;5055832;28;20029;-77
2021/11/10 04:57:26;;;;;;;200.90;9.10;;;;;;;;;;5054412;28;20036;-77
2021/11/10 04:59:53;;;;;;;26.45;7.65;;;;;;;;;;5053959;28;20128;-77
2021/11/10 05:02:25;;;;;;;84.95;8.68;;;;;;;;;;5054414;28;20462;-77
2021/11/10 05:04:54;;;;;;;47.58;7.68;;;;;;;;;;5054051;28;20219;-78
2021/11/10 05:07:21;;;;;;;20.48;7.53;;;;;;;;;;5054340;28;20032;-76
2021/11/10 05:09:48;;;;;;;23.20;8.00;;;;;;;;;;5054086;28;20087;-76
2021/11/10 05:12:14;;;;;;;137.52;9.07;;;;;;;;;;5055549;28;20122;-77
2021/11/10 05:14:40;;;;;;;104.45;9.13;;;;;;;;;;5053662;28;20033;-77
2021/11/10 05:17:05;;;;;;;98.47;9.38;;;;;;;;;;5055427;28;20087;-76
2021/11/10 05:19:31;;;;;;;48.67;8.20;;;;;;;;;;5053915;28;20032;-77
2021/11/10 05:21:57;;;;;;;132.85;9.38;;;;;;;;;;5054156;28;20471;-77
2021/11/10 05:24:25;;;;;;;22.80;7.88;;;;;;;;;;5052816;28;20090;-77
2021/11/10 05:26:51;;;;;;;27.48;8.45;;;;;;;;;;5055106;28;20037;-77
2021/11/10 05:29:16;;;;;;;27.77;8.55;;;;;;;;;;5055106;28;20131;-77
2021/11/10 05:31:41;;;;;;;23.15;7.80;;;;;;;;;;5054864;28;20506;-77
2021/11/10 05:34:08;;;;;;;36.55;7.57;;;;;;;;;;5054852;28;20065;-77
2021/11/10 05:36:33;;;;;;;11.52;6.95;;;;;;;;;;5054911;28;20491;-77
2021/11/10 05:38:59;;;;;;;55.00;7.25;;;;;;;;;;5054615;28;20044;-77
2021/11/10 05:41:24;;;;;;;16.85;7.10;;;;;;;;;;5053909;28;20130;-77
2021/11/10 05:43:50;;;;;;;9.68;6.93;;;;;;;;;;5054446;28;20053;-77
2021/11/10 05:46:15;;;;;;;33.35;7.60;;;;;;;;;;5054891;28;20025;-76
2021/11/10 05:48:41;;;;;;;166.60;9.00;;;;;;;;;;5054242;28;20090;-77
2021/11/10 05:51:06;;;;;;;13.07;7.40;;;;;;;;;;5054556;28;20060;-77
2021/11/10 05:53:32;;;;;;;35.45;7.82;;;;;;;;;;5054186;28;20082;-77
2021/11/10 05:55:58;;;;;;;33.50;7.38;;;;;;;;;;5054169;28;20526;-76
2021/11/10 05:58:27;;;;;;;37.35;7.38;;;;;;;;;;5054765;28;20043;-77
2021/11/10 06:00:55;;;;;;;27.63;7.82;;;;;;;;;;5054412;28;20040;-76
2021/11/10 06:03:21;;;;;;;75.53;8.07;;;;;;;;;;5054148;28;20047;-77
2021/11/10 06:05:50;;;;;;;64.72;7.47;;;;;;;;;;5054454;28;20036;-77
2021/11/10 06:08:15;;;;;;;97.20;9.10;;;;;;;;;;5054136;28;20033;-77
2021/11/10 06:10:41;;;;;;;90.53;8.60;;;;;;;;;;5054134;28;20450;-77
2021/11/10 06:13:06;;;;;;;36.50;7.10;;;;;;;;;;5054224;28;20033;-76
2021/11/10 06:15:32;;;;;;;148.82;7.80;;;;;;;;;;5054133;28;20068;-77
2021/11/10 06:17:57;;;;;;;200.85;9.48;;;;;;;;;;5054183;28;20037;-77
2021/11/10 06:20:22;;;;;;;60.58;8.05;;;;;;;;;;5054279;28;20025;-76
2021/11/10 06:22:48;;;;;;;120.65;7.85;;;;;;;;;;5052921;28;20035;-77
2021/11/10 06:25:20;;;;;;;50.00;6.70;;;;;;;;;;5052806;28;20044;-77
2021/11/10 06:27:45;;;;;;;66.38;6.88;;;;;;;;;;5053795;28;20483;-76
2021/11/10 06:30:11;;;;;;;42.28;7.32;;;;;;;;;;5053581;28;20159;-77
2021/11/10 06:32:36;;;;;;;34.47;7.43;;;;;;;;;;5053995;28;20037;-77
2021/11/10 06:35:03;;;;;;;28.40;6.47;;;;;;;;;;5053736;28;20037;-77
2021/11/10 06:37:28;;;;;;;101.60;7.63;;;;;;;;;;5052857;28;20041;-77
2021/11/10 06:39:54;;;;;;;217.85;8.63;;;;;;;;;;5053544;28;20037;-77
2021/11/10 06:42:20;;;;;;;89.75;6.82;;;;;;;;;;5053434;28;20045;-77
2021/11/10 06:44:45;;;;;;;17.08;6.78;;;;;;;;;;5053169;28;20116;-77
2021/11/10 06:47:11;;;;;;;21.05;7.05;;;;;;;;;;5052223;28;20135;-77
2021/11/10 06:49:36;;;;;;;15.88;6.50;;;;;;;;;;5053483;28;20093;-76
2021/11/10 06:52:03;;;;;;;32.97;6.88;;;;;;;;;;5052307;28;20017;-76
2021/11/10 06:54:28;;;;;;;27.90;7.22;;;;;;;;;;5052944;28;20462;-77
2021/11/10 06:56:54;;;;;;;57.83;6.90;;;;;;;;;;5053605;28;20033;-77
2021/11/10 06:59:19;;;;;;;188.40;8.75;;;;;;;;;;5052657;28;20152;-77
2021/11/10 07:01:45;;;;;;;9.85;6.40;;;;;;;;;;5053247;28;20048;-77
2021/11/10 07:04:11;;;;;;;13.68;6.13;;;;;;;;;;5053335;28;20041;-77
2021/11/10 07:06:37;;;;;;;22.17;6.15;;;;;;;;;;5053252;28;20064;-77
2021/11/10 07:09:05;;;;;;;51.72;6.57;;;;;;;;;;5053157;28;20045;-77
2021/11/10 07:11:31;;;;;;;7.15;5.28;;;;;;;;;;5053374;28;20077;-77
2021/11/10 07:13:56;;;;;;;30.17;6.15;;;;;;;;;;5052790;28;20067;-77
2021/11/10 07:16:22;;;;;;;74.07;6.95;;;;;;;;;;5053412;28;20032;-77
2021/11/10 07:18:47;;;;;;;56.83;6.63;;;;;;;;;;5053228;28;20075;-77
2021/11/10 07:21:13;;;;;;;19.08;6.60;;;;;;;;;;5051946;28;20052;-77
2021/11/10 07:23:38;;;;;;;87.13;7.05;;;;;;;;;;5061385;28;20459;-76
2021/11/10 07:26:04;;;;;;;86.57;6.50;;;;;;;;;;5072010;28;20494;-77
2021/11/10 07:28:29;;;;;;;135.27;7.03;;;;;;;;;;5073127;28;20047;-77
2021/11/10 07:30:54;;;;;;;102.70;7.72;;;;;;;;;;5073110;28;20098;-77
2021/11/10 07:33:20;;;;;;;59.90;6.55;;;;;;;;;;5072898;28;20032;-77
2021/11/10 07:35:45;;;;;;;17.15;5.93;;;;;;;;;;5073147;28;20047;-77
2021/11/10 07:38:11;;;;;;;74.70;6.82;;;;;;;;;;5071611;28;20043;-78
2021/11/10 07:40:37;;;;;;;14.75;7.30;;;;;;;;;;5061722;28;20029;-78
2021/11/10 07:43:03;;;;;;;26.23;6.82;;;;;;;;;;5052836;28;20407;-77
2021/11/10 07:45:36;;;;;;;65.22;7.10;;;;;;;;;;5053049;28;20483;-77
2021/11/10 07:48:04;;;;;;;71.85;7.90;;;;;;;;;;5051443;28;20028;-77
2021/11/10 07:50:30;;;;;;;83.07;10.07;;;;;;;;;;5052683;28;20057;-77
2021/11/10 07:52:56;;;;;;;98.40;8.05;;;;;;;;;;5052253;28;20040;-77
2021/11/10 07:55:22;;;;;;;59.92;7.93;;;;;;;;;;5053850;28;20041;-78
2021/11/10 07:57:47;;;;;;;43.22;7.90;;;;;;;;;;5054190;28;20094;-78
2021/11/10 08:00:16;;;;;;;33.53;8.48;;;;;;;;;;5054932;28;20037;-79
2021/11/10 08:02:42;;;;;;;25.27;6.95;;;;;;;;;;5060316;28;20120;-80
2021/11/10 08:05:09;;;;;;;59.17;7.25;;;;;;;;;;5059215;28;20552;-79
2021/11/10 08:07:34;;;;;;;17.45;6.55;;;;;;;;;;5058561;28;20079;-79
2021/11/10 08:09:59;;;;;;;34.33;7.13;;;;;;;;;;5066016;28;20084;-81
2021/11/10 08:12:26;;;;;;;30.13;6.82;;;;;;;;;;5084315;28;20033;-80
2021/11/10 08:14:51;;;;;;;42.15;7.07;;;;;;;;;;5079832;28;20042;-78
2021/11/10 08:17:17;;;;;;;35.70;7.07;;;;;;;;;;5077024;28;20040;-79
2021/11/10 08:19:42;;;;;;;17.27;7.07;;;;;;;;;;5080710;28;20036;-78
2021/11/10 08:22:08;;;;;;;28.90;6.43;;;;;;;;;;5076673;28;20111;-78
2021/11/10 08:24:33;;;;;;;10.75;5.80;;;;;;;;;;5045315;28;20034;-78
2021/11/10 08:26:59;;;;;;;19.40;6.68;;;;;;;;;;5040261;28;20090;-78
2021/11/10 08:29:24;;;;;;;12.75;6.38;;;;;;;;;;5037891;28;20044;-77
2021/11/10 08:31:51;;;;;;;36.88;7.35;;;;;;;;;;5039912;28;20124;-78
2021/11/10 08:34:16;;;;;;;14.48;8.18;;;;;;;;;;5053801;28;20036;-77
2021/11/10 08:36:42;;;;;;;16.00;7.18;;;;;;;;;;5037593;28;20476;-77
2021/11/10 08:39:07;;;;;;;11.18;6.10;;;;;;;;;;5039493;28;20089;-79
2021/11/10 08:41:33;;;;;;;16.42;6.60;;;;;;;;;;5057467;28;20063;-78
2021/11/10 08:43:59;;;;;;;19.05;7.53;;;;;;;;;;5055993;28;20413;-77
2021/11/10 08:46:25;;;;;;;15.32;6.97;;;;;;;;;;5056359;28;20044;-77
2021/11/10 08:48:51;;;;;;;8.25;6.15;;;;;;;;;;5056189;28;20049;-77
2021/11/10 08:51:16;;;;;;;17.27;7.00;;;;;;;;;;5056753;28;20064;-77
2021/11/10 08:53:42;;;;;;;11.57;5.65;;;;;;;;;;5056902;28;20087;-77
2021/11/10 08:56:07;;;;;;;10.55;5.38;;;;;;;;;;5056683;28;20112;-77
2021/11/10 08:58:34;;;;;;;40.58;6.88;;;;;;;;;;5039905;28;20112;-77
2021/11/10 09:00:59;;;;;;;68.35;8.18;;;;;;;;;;5036645;28;20510;-77
2021/11/10 09:03:26;;;;;;;13.25;7.05;;;;;;;;;;5037216;28;20364;-76
2021/11/10 09:05:52;;;;;;;48.25;7.32;;;;;;;;;;5036961;28;20041;-77
2021/11/10 09:08:19;;;;;;;44.08;7.47;;;;;;;;;;5039496;28;20179;-80
2021/11/10 09:10:45;;;;;;;31.75;6.90;;;;;;;;;;5038189;28;20045;-77
2021/11/10 09:13:11;;;;;;;12.38;6.72;;;;;;;;;;5040151;28;20033;-77
2021/11/10 09:15:36;;;;;;;10.98;6.68;;;;;;;;;;5022758;28;20033;-77
2021/11/10 09:18:05;;;;;;;10.68;7.05;;;;;;;;;;5036837;28;20388;-77
2021/11/10 09:20:31;;;;;;;10.48;7.28;;;;;;;;;;5036816;28;20033;-77
2021/11/10 09:22:58;;;;;;;16.42;6.32;;;;;;;;;;5034143;28;20499;-78
2021/11/10 09:25:26;;;;;;;16.70;6.93;;;;;;;;;;5036142;28;20052;-76
2021/11/10 09:27:53;;;;;;;11.70;7.22;;;;;;;;;;5035712;28;20120;-77
2021/11/10 09:30:21;;;;;;;15.82;7.15;;;;;;;;;;5034728;28;20046;-76
2021/11/10 09:32:48;;;;;;;13.65;7.70;;;;;;;;;;5035401;28;20069;-77
2021/11/10 09:35:16;;;;;;;31.42;7.20;;;;;;;;;;5035378;28;20406;-77
2021/11/10 09:37:43;;;;;;;13.30;8.65;;;;;;;;;;5035866;28;20033;-77
2021/11/10 09:40:12;;;;;;;16.48;7.95;;;;;;;;;;5050991;28;20036;-77
2021/11/10 09:42:37;;;;;;;39.67;8.48;;;;;;;;;;5055876;28;20144;-79
2021/11/10 09:45:05;;;;;;;17.75;8.80;;;;;;;;;;5057093;28;20095;-79
2021/11/10 09:47:30;;;;;;;15.90;8.43;;;;;;;;;;5057587;28;20071;-80
2021/11/10 09:49:56;;;;;;;52.42;10.75;;;;;;;;;;5056678;28;20021;-78
2021/11/10 09:52:21;;;;;;;43.47;9.77;;;;;;;;;;5059685;28;20032;-79
2021/11/10 09:54:48;;;;;;;39.38;9.80;;;;;;;;;;5059687;28;20059;-80
2021/11/10 09:57:13;;;;;;;30.92;10.27;;;;;;;;;;5058344;28;20036;-79
2021/11/10 09:59:39;;;;;;;16.15;9.60;;;;;;;;;;5058030;28;20039;-79
2021/11/10 10:02:11;;;;;;;18.00;9.70;;;;;;;;;;5059049;28;20036;-77
2021/11/10 10:04:44;;;;;;;16.65;10.35;;;;;;;;;;5056171;28;20082;-78
2021/11/10 10:07:10;;;;;;;17.20;9.18;;;;;;;;;;5056207;28;20086;-78
2021/11/10 10:09:37;;;;;;;12.65;8.63;;;;;;;;;;5055725;28;20127;-77
2021/11/10 10:12:04;;;;;;;16.75;8.57;;;;;;;;;;5054757;28;20036;-77
2021/11/10 10:14:29;;;;;;;15.85;9.07;;;;;;;;;;5057562;28;20043;-79
2021/11/10 10:16:56;;;;;;;20.75;9.57;;;;;;;;;;5056395;28;20394;-77
2021/11/10 10:19:23;;;;;;;105.53;10.63;;;;;;;;;;5057019;28;20040;-78
2021/11/10 10:21:59;;;;;;;11.90;9.00;;;;;;;;;;5058447;28;20453;-79
2021/11/10 10:24:25;;;;;;;20.15;10.18;;;;;;;;;;5056894;28;20064;-79
2021/11/10 10:26:50;;;;;;;15.20;10.20;;;;;;;;;;5058297;28;20052;-78
2021/11/10 10:29:17;;;;;;;14.93;9.95;;;;;;;;;;5055327;28;20051;-78
2021/11/10 10:31:43;;;;;;;23.95;11.05;;;;;;;;;;5055112;28;20130;-77
2021/11/10 10:34:10;;;;;;;19.45;9.68;;;;;;;;;;5054060;28;20045;-77
2021/11/10 10:36:39;;;;;;;16.67;10.82;;;;;;;;;;5052883;28;20147;-77
2021/11/10 10:39:10;;;;;;;25.85;11.68;;;;;;;;;;5053607;28;20032;-77
2021/11/10 10:41:41;;;;;;;19.95;11.35;;;;;;;;;;5051648;28;20033;-77
2021/11/10 10:44:08;;;;;;;36.65;12.50;;;;;;;;;;5053634;28;20040;-77
2021/11/10 10:46:37;;;;;;;19.55;11.98;;;;;;;;;;5054102;28;20040;-77
2021/11/10 10:49:20;;;;;;;41.65;14.25;;;;;;;;;;5052245;28;20037;-77
2021/11/10 10:51:52;;;;;;;57.95;13.82;;;;;;;;;;5053425;28;20441;-76
2021/11/10 10:54:19;;;;;;;58.25;14.65;;;;;;;;;;5053957;28;20426;-76
2021/11/10 10:56:54;;;;;;;28.15;16.35;;;;;;;;;;5053355;28;20037;-75
2021/11/10 10:59:23;;;;;;;37.87;16.97;;;;;;;;;;5053609;28;20033;-76
2021/11/10 11:01:53;;;;;;;29.25;17.25;;;;;;;;;;5053597;28;20272;-77
2021/11/10 11:04:28;;;;;;;33.42;18.13;;;;;;;;;;5053226;28;20043;-76
2021/11/10 11:07:08;;;;;;;31.70;18.90;;;;;;;;;;5053631;28;20091;-75
2021/11/10 11:09:40;;;;;;;33.25;18.67;;;;;;;;;;5052284;28;20025;-76
2021/11/10 11:17:20;;;;;;;36.30;22.25;;;;;;;;;;5052800;28;20076;-76
2021/11/10 11:19:55;;;;;;;33.65;20.65;;;;;;;;;;5053687;28;20044;-78
2021/11/10 11:22:21;;;;;;;36.83;21.30;;;;;;;;;;5053788;28;20040;-77
2021/11/10 11:24:46;;;;;;;33.28;18.90;;;;;;;;;;5052346;28;20120;-76
2021/11/10 11:27:20;;;;;;;32.65;18.40;;;;;;;;;;5053104;28;20069;-76
2021/11/10 11:29:53;;;;;;;28.83;18.17;;;;;;;;;;5053227;28;20029;-77
2021/11/10 11:32:25;;;;;;;26.45;17.40;;;;;;;;;;5051842;28;20167;-76
2021/11/10 11:34:53;;;;;;;25.30;16.20;;;;;;;;;;5053085;28;20437;-76
2021/11/10 11:37:18;;;;;;;27.90;18.45;;;;;;;;;;5053085;28;20040;-76
2021/11/10 11:39:44;;;;;;;28.30;17.85;;;;;;;;;;5052105;28;20025;-76
2021/11/10 11:42:09;;;;;;;28.33;17.73;;;;;;;;;;5052897;28;20080;-76
2021/11/10 11:44:36;;;;;;;28.40;17.08;;;;;;;;;;5052601;28;20095;-76
2021/11/10 11:47:02;;;;;;;24.13;16.52;;;;;;;;;;5052966;28;20040;-76
2021/11/10 11:49:28;;;;;;;20.73;15.15;;;;;;;;;;5052989;28;20199;-75
2021/11/10 11:51:55;;;;;;;22.38;16.17;;;;;;;;;;5054795;28;20131;-78
2021/11/10 11:54:20;;;;;;;39.58;16.10;;;;;;;;;;5066364;28;20041;-79
2021/11/10 11:56:46;;;;;;;26.92;16.92;;;;;;;;;;5058508;28;20086;-79
2021/11/10 11:59:14;;;;;;;24.00;15.75;;;;;;;;;;5061354;28;20126;-81
2021/11/10 12:01:40;;;;;;;26.35;17.08;;;;;;;;;;5060587;28;20037;-78
2021/11/10 12:04:10;;;;;;;23.98;15.15;;;;;;;;;;5060406;28;20044;-77
2021/11/10 12:06:48;;;;;;;32.05;16.08;;;;;;;;;;5060260;28;20047;-82
2021/11/10 12:09:19;;;;;;;26.33;16.13;;;;;;;;;;5060901;28;20037;-77
2021/11/10 12:11:50;;;;;;;27.38;16.77;;;;;;;;;;5040843;28;20052;-79
2021/11/10 12:14:21;;;;;;;24.05;16.45;;;;;;;;;;5040204;28;20083;-82
2021/11/10 12:17:12;;;;;;;27.45;18.35;;;;;;;;;;5041303;28;20037;-81
2021/11/10 12:20:02;;;;;;;30.15;16.60;;;;;;;;;;5044268;28;20061;-82
2021/11/10 12:22:32;;;;;;;25.40;16.33;;;;;;;;;;5044407;28;20033;-80
2021/11/10 12:25:00;;;;;;;28.60;17.30;;;;;;;;;;5043363;28;20029;-82
2021/11/10 12:27:29;;;;;;;26.85;16.92;;;;;;;;;;5040051;28;20033;-82
2021/11/10 12:30:07;;;;;;;23.38;15.93;;;;;;;;;;5040705;28;20441;-80
2021/11/10 12:32:33;;;;;;;20.75;13.77;;;;;;;;;;5039508;28;21659;-79
2021/11/10 12:34:59;;;;;;;20.83;14.10;;;;;;;;;;5040503;28;20033;-79
2021/11/10 12:37:32;;;;;;;24.20;13.60;;;;;;;;;;5032027;28;20036;-77
2021/11/10 12:40:15;;;;;;;19.17;13.18;;;;;;;;;;5059830;28;20040;-78
2021/11/10 12:43:01;;;;;;;16.42;11.55;;;;;;;;;;5058974;28;20061;-77
2021/11/10 12:45:40;;;;;;;21.10;14.55;;;;;;;;;;5057930;28;20068;-77
2021/11/10 12:48:09;;;;;;;22.95;12.70;;;;;;;;;;5056681;28;20427;-79
2021/11/10 12:50:51;;;;;;;18.52;12.13;;;;;;;;;;5061680;28;20124;-78
2021/11/10 12:53:34;;;;;;;19.63;12.68;;;;;;;;;;5060132;28;20375;-78
2021/11/10 12:56:01;;;;;;;16.70;12.23;;;;;;;;;;5039267;28;20076;-79
2021/11/10 12:58:28;;;;;;;17.80;12.48;;;;;;;;;;5041474;28;20037;-79
2021/11/10 13:00:56;;;;;;;20.52;13.10;;;;;;;;;;5036895;28;20030;-78
2021/11/10 13:03:34;;;;;;;15.95;11.85;;;;;;;;;;5039048;28;20033;-79
2021/11/10 13:06:18;;;;;;;18.60;12.65;;;;;;;;;;5039171;28;20091;-79
2021/11/10 13:09:42;;;;;;;17.92;12.50;;;;;;;;;;5022345;28;20037;-78
2021/11/10 13:11:45;;;;;;;16.92;12.82;;;;;;;;;;5032335;28;20053;-78
2021/11/10 13:14:19;;;;;;;16.40;11.73;;;;;;;;;;5039852;28;20052;-78
2021/11/10 13:17:09;;;;;;;16.73;12.02;;;;;;;;;;5040132;28;20449;-78
2021/11/10 13:20:09;;;;;;;17.85;13.00;;;;;;;;;;5039400;28;20033;-78
2021/11/10 13:22:41;;;;;;;18.02;12.38;;;;;;;;;;5040046;28;20049;-78
2021/11/10 13:25:11;;;;;;;18.75;12.35;;;;;;;;;;5041366;28;20037;-79
2021/11/10 13:27:47;;;;;;;17.88;12.43;;;;;;;;;;5041403;28;20045;-79
2021/11/10 13:30:24;;;;;;;16.70;11.77;;;;;;;;;;5041795;28;20124;-78
2021/11/10 13:32:49;;;;;;;29.80;15.55;;;;;;;;;;5041397;28;20072;-78
2021/11/10 13:35:15;;;;;;;26.45;14.25;;;;;;;;;;5041049;28;20046;-78
2021/11/10 13:37:48;;;;;;;25.95;12.55;;;;;;;;;;5040760;28;20037;-78
2021/11/10 13:40:17;;;;;;;20.38;13.27;;;;;;;;;;5047232;28;20025;-78
2021/11/10 13:42:49;;;;;;;26.55;14.23;;;;;;;;;;5059654;28;20045;-78
2021/11/10 13:45:16;;;;;;;28.17;15.23;;;;;;;;;;5060298;28;20433;-78
2021/11/10 13:48:18;;;;;;;24.02;13.85;;;;;;;;;;5059685;28;20052;-78
2021/11/10 13:50:44;;;;;;;24.08;13.48;;;;;;;;;;5058682;28;20049;-78
2021/11/10 13:53:22;;;;;;;23.17;13.60;;;;;;;;;;5060141;28;20047;-79
2021/11/10 13:55:56;;;;;;;24.70;15.02;;;;;;;;;;5058055;28;20120;-79
2021/11/10 13:58:22;;;;;;;31.90;15.60;;;;;;;;;;5059252;28;20127;-78
2021/11/10 14:00:48;;;;;;;21.90;13.15;;;;;;;;;;5059181;28;20078;-78
2021/11/10 14:03:24;;;;;;;21.60;13.75;;;;;;;;;;5059335;28;20040;-78
2021/11/10 14:05:50;;;;;;;;;;;;;;;;;;5058042;28;20040;-78
2021/11/10 14:08:15;;;;;;;17.17;11.50;;;;;;;;;;5058814;28;20305;-78
2021/11/10 14:10:41;;;;;;;16.85;11.63;;;;;;;;;;5069838;28;20064;-78
2021/11/10 14:13:07;;;;;;;16.40;11.50;;;;;;;;;;5078587;28;20043;-78
2021/11/10 14:15:41;;;;;;;17.15;12.57;;;;;;;;;;5078888;28;20059;-78
2021/11/10 14:18:12;;;;;;;17.30;12.35;;;;;;;;;;5078773;28;20033;-78
2021/11/10 14:20:55;;;;;;;24.95;13.55;;;;;;;;;;5078835;28;20037;-78
2021/11/10 14:23:26;;;;;;;18.83;12.77;;;;;;;;;;5077678;28;20504;-78
2021/11/10 14:25:56;;;;;;;17.42;12.48;;;;;;;;;;5078609;28;20496;-78
2021/11/10 14:28:24;;;;;;;26.65;13.00;;;;;;;;;;5078003;28;20036;-78
2021/11/10 14:31:01;;;;;;;18.08;12.40;;;;;;;;;;5077639;28;20116;-78
2021/11/10 14:33:33;;;;;;;18.60;13.30;;;;;;;;;;5077699;28;20037;-78
2021/11/10 14:36:03;;;;;;;22.98;13.80;;;;;;;;;;5077475;28;20032;-78
2021/11/10 14:38:48;;;;;;;21.20;14.45;;;;;;;;;;5077333;28;20036;-78